sensor_id;sensor_type;location;lat;lon;timestamp;P1;durP1;ratioP1;P2;durP2;ratioP2
16600;SDS011;34891;48.164;11.572;2022-07-06T00:02:50;3.73;;;2.20;;
16600;SDS011;34891;48.164;11.572;2022-07-06T00:07:53;4.60;;;2.00;;
16600;SDS011;34891;48.164;11.572;2022-07-06T00:12:56;2.65;;;1.80;;
16600;SDS011;34891;48.164;11.572;2022-07-06T00:18:01;3.50;;;1.83;;
16600;SDS011;34891;48.164;11.572;2022-07-06T00:23:03;1.90;;;1.65;;
16600;SDS011;34891;48.164;11.572;2022-07-06T00:28:06;5.37;;;2.27;;
16600;SDS011;34891;48.164;11.572;2022-07-06T00:33:10;4.18;;;2.00;;
16600;SDS011;34891;48.164;11.572;2022-07-06T00:38:13;2.42;;;1.98;;
16600;SDS011;34891;48.164;11.572;2022-07-06T00:43:16;4.97;;;1.50;;
16600;SDS011;34891;48.164;11.572;2022-07-06T00:48:20;4.72;;;2.13;;
16600;SDS011;34891;48.164;11.572;2022-07-06T00:53:24;4.88;;;1.48;;
16600;SDS011;34891;48.164;11.572;2022-07-06T00:58:26;2.77;;;1.90;;
16600;SDS011;34891;48.164;11.572;2022-07-06T01:03:31;4.77;;;1.80;;
16600;SDS011;34891;48.164;11.572;2022-07-06T01:08:34;1.90;;;1.80;;
16600;SDS011;34891;48.164;11.572;2022-07-06T01:13:37;2.75;;;1.90;;
16600;SDS011;34891;48.164;11.572;2022-07-06T01:18:42;3.58;;;2.10;;
16600;SDS011;34891;48.164;11.572;2022-07-06T01:23:46;2.15;;;1.80;;
16600;SDS011;34891;48.164;11.572;2022-07-06T01:28:55;4.55;;;2.00;;
16600;SDS011;34891;48.164;11.572;2022-07-06T01:34:02;2.65;;;2.10;;
16600;SDS011;34891;48.164;11.572;2022-07-06T01:44:21;2.75;;;1.90;;
16600;SDS011;34891;48.164;11.572;2022-07-06T01:49:23;2.22;;;1.80;;
16600;SDS011;34891;48.164;11.572;2022-07-06T01:54:26;2.47;;;1.73;;
16600;SDS011;34891;48.164;11.572;2022-07-06T01:59:30;1.20;;;0.90;;
16600;SDS011;34891;48.164;11.572;2022-07-06T02:04:33;2.70;;;1.85;;
16600;SDS011;34891;48.164;11.572;2022-07-06T02:09:36;2.43;;;1.60;;
16600;SDS011;34891;48.164;11.572;2022-07-06T02:14:40;3.03;;;1.40;;
16600;SDS011;34891;48.164;11.572;2022-07-06T02:19:43;2.65;;;1.52;;
16600;SDS011;34891;48.164;11.572;2022-07-06T02:24:46;2.42;;;1.83;;
16600;SDS011;34891;48.164;11.572;2022-07-06T02:29:50;3.17;;;1.70;;
16600;SDS011;34891;48.164;11.572;2022-07-06T02:34:53;2.33;;;1.70;;
16600;SDS011;34891;48.164;11.572;2022-07-06T02:39:56;1.37;;;0.93;;
16600;SDS011;34891;48.164;11.572;2022-07-06T02:45:00;2.83;;;1.70;;
16600;SDS011;34891;48.164;11.572;2022-07-06T02:50:03;2.38;;;1.67;;
16600;SDS011;34891;48.164;11.572;2022-07-06T02:55:06;2.65;;;1.55;;
16600;SDS011;34891;48.164;11.572;2022-07-06T03:00:10;2.15;;;1.95;;
16600;SDS011;34891;48.164;11.572;2022-07-06T03:05:14;2.55;;;1.90;;
16600;SDS011;34891;48.164;11.572;2022-07-06T03:10:17;1.87;;;1.47;;
16600;SDS011;34891;48.164;11.572;2022-07-06T03:15:21;2.43;;;1.63;;
16600;SDS011;34891;48.164;11.572;2022-07-06T03:20:23;4.38;;;1.83;;
16600;SDS011;34891;48.164;11.572;2022-07-06T03:25:26;3.10;;;2.27;;
16600;SDS011;34891;48.164;11.572;2022-07-06T03:30:30;3.57;;;1.83;;
16600;SDS011;34891;48.164;11.572;2022-07-06T03:35:33;3.53;;;2.15;;
16600;SDS011;34891;48.164;11.572;2022-07-06T03:40:36;3.57;;;2.30;;
16600;SDS011;34891;48.164;11.572;2022-07-06T03:45:40;2.13;;;1.93;;
16600;SDS011;34891;48.164;11.572;2022-07-06T03:50:43;3.33;;;2.17;;
16600;SDS011;34891;48.164;11.572;2022-07-06T03:55:46;1.50;;;1.40;;
16600;SDS011;34891;48.164;11.572;2022-07-06T04:01:11;5.60;;;2.20;;
16600;SDS011;34891;48.164;11.572;2022-07-06T04:06:14;3.75;;;2.10;;
16600;SDS011;34891;48.164;11.572;2022-07-06T04:11:17;3.80;;;2.00;;
16600;SDS011;34891;48.164;11.572;2022-07-06T04:21:25;3.75;;;2.00;;
16600;SDS011;34891;48.164;11.572;2022-07-06T04:26:28;1.55;;;1.35;;
16600;SDS011;34891;48.164;11.572;2022-07-06T04:31:30;4.37;;;2.30;;
16600;SDS011;34891;48.164;11.572;2022-07-06T04:36:35;2.47;;;1.97;;
16600;SDS011;34891;48.164;11.572;2022-07-06T04:41:38;3.47;;;2.25;;
16600;SDS011;34891;48.164;11.572;2022-07-06T04:46:40;3.13;;;1.33;;
16600;SDS011;34891;48.164;11.572;2022-07-06T04:51:45;2.50;;;2.20;;
16600;SDS011;34891;48.164;11.572;2022-07-06T04:56:47;2.60;;;2.00;;
16600;SDS011;34891;48.164;11.572;2022-07-06T05:01:50;3.77;;;2.30;;
16600;SDS011;34891;48.164;11.572;2022-07-06T05:11:58;4.00;;;2.30;;
16600;SDS011;34891;48.164;11.572;2022-07-06T05:17:01;3.35;;;1.75;;
16600;SDS011;34891;48.164;11.572;2022-07-06T05:22:04;1.85;;;1.35;;
16600;SDS011;34891;48.164;11.572;2022-07-06T05:27:08;3.07;;;1.90;;
16600;SDS011;34891;48.164;11.572;2022-07-06T05:32:11;2.90;;;1.90;;
16600;SDS011;34891;48.164;11.572;2022-07-06T05:37:14;3.63;;;1.90;;
16600;SDS011;34891;48.164;11.572;2022-07-06T05:42:18;2.63;;;1.80;;
16600;SDS011;34891;48.164;11.572;2022-07-06T05:47:21;2.08;;;1.38;;
16600;SDS011;34891;48.164;11.572;2022-07-06T05:52:41;2.22;;;1.75;;
16600;SDS011;34891;48.164;11.572;2022-07-06T06:02:49;3.40;;;2.10;;
16600;SDS011;34891;48.164;11.572;2022-07-06T06:07:52;3.38;;;2.40;;
16600;SDS011;34891;48.164;11.572;2022-07-06T06:12:55;2.60;;;1.75;;
16600;SDS011;34891;48.164;11.572;2022-07-06T06:17:59;4.55;;;2.25;;
16600;SDS011;34891;48.164;11.572;2022-07-06T06:23:02;3.17;;;1.98;;
16600;SDS011;34891;48.164;11.572;2022-07-06T06:28:06;1.88;;;1.48;;
16600;SDS011;34891;48.164;11.572;2022-07-06T06:33:12;3.53;;;2.30;;
16600;SDS011;34891;48.164;11.572;2022-07-06T06:38:16;3.38;;;2.20;;
16600;SDS011;34891;48.164;11.572;2022-07-06T06:43:19;8.75;;;3.95;;
16600;SDS011;34891;48.164;11.572;2022-07-06T06:48:23;2.67;;;2.25;;
16600;SDS011;34891;48.164;11.572;2022-07-06T06:53:26;3.95;;;2.38;;
16600;SDS011;34891;48.164;11.572;2022-07-06T06:58:28;3.33;;;1.98;;
16600;SDS011;34891;48.164;11.572;2022-07-06T07:03:53;4.07;;;2.15;;
16600;SDS011;34891;48.164;11.572;2022-07-06T07:08:56;5.47;;;2.22;;
16600;SDS011;34891;48.164;11.572;2022-07-06T07:13:59;6.90;;;3.50;;
16600;SDS011;34891;48.164;11.572;2022-07-06T07:19:04;4.88;;;2.30;;
16600;SDS011;34891;48.164;11.572;2022-07-06T07:24:07;5.05;;;2.50;;
16600;SDS011;34891;48.164;11.572;2022-07-06T07:29:11;4.47;;;2.00;;
16600;SDS011;34891;48.164;11.572;2022-07-06T07:34:15;3.17;;;2.35;;
16600;SDS011;34891;48.164;11.572;2022-07-06T07:39:18;2.60;;;2.03;;
16600;SDS011;34891;48.164;11.572;2022-07-06T07:44:21;3.38;;;2.40;;
16600;SDS011;34891;48.164;11.572;2022-07-06T07:49:25;6.40;;;2.70;;
16600;SDS011;34891;48.164;11.572;2022-07-06T07:54:28;2.95;;;2.42;;
16600;SDS011;34891;48.164;11.572;2022-07-06T07:59:31;3.67;;;2.83;;
16600;SDS011;34891;48.164;11.572;2022-07-06T08:09:37;5.43;;;2.70;;
16600;SDS011;34891;48.164;11.572;2022-07-06T08:14:40;4.72;;;2.75;;
16600;SDS011;34891;48.164;11.572;2022-07-06T08:19:43;4.28;;;2.83;;
16600;SDS011;34891;48.164;11.572;2022-07-06T08:24:47;3.60;;;2.38;;
16600;SDS011;34891;48.164;11.572;2022-07-06T08:29:49;3.45;;;2.63;;
16600;SDS011;34891;48.164;11.572;2022-07-06T08:34:52;5.43;;;2.60;;
16600;SDS011;34891;48.164;11.572;2022-07-06T08:39:57;4.47;;;2.40;;
16600;SDS011;34891;48.164;11.572;2022-07-06T08:45:00;4.60;;;2.60;;
16600;SDS011;34891;48.164;11.572;2022-07-06T08:50:03;6.07;;;2.70;;
16600;SDS011;34891;48.164;11.572;2022-07-06T08:55:07;3.63;;;2.72;;
16600;SDS011;34891;48.164;11.572;2022-07-06T09:00:11;4.53;;;2.85;;
16600;SDS011;34891;48.164;11.572;2022-07-06T09:05:15;2.85;;;2.58;;
16600;SDS011;34891;48.164;11.572;2022-07-06T09:10:21;4.60;;;2.90;;
16600;SDS011;34891;48.164;11.572;2022-07-06T09:15:27;3.35;;;2.85;;
16600;SDS011;34891;48.164;11.572;2022-07-06T09:20:31;4.35;;;3.15;;
16600;SDS011;34891;48.164;11.572;2022-07-06T09:25:35;4.80;;;2.63;;
16600;SDS011;34891;48.164;11.572;2022-07-06T09:30:38;4.53;;;3.25;;
16600;SDS011;34891;48.164;11.572;2022-07-06T09:35:42;5.57;;;3.33;;
16600;SDS011;34891;48.164;11.572;2022-07-06T09:40:49;5.50;;;3.65;;
16600;SDS011;34891;48.164;11.572;2022-07-06T09:45:52;3.50;;;3.20;;
16600;SDS011;34891;48.164;11.572;2022-07-06T09:50:56;4.57;;;3.40;;
16600;SDS011;34891;48.164;11.572;2022-07-06T09:56:01;4.80;;;3.35;;
16600;SDS011;34891;48.164;11.572;2022-07-06T10:01:05;4.70;;;3.45;;
16600;SDS011;34891;48.164;11.572;2022-07-06T10:06:08;4.93;;;3.65;;
16600;SDS011;34891;48.164;11.572;2022-07-06T10:11:12;6.60;;;3.05;;
16600;SDS011;34891;48.164;11.572;2022-07-06T10:16:16;3.50;;;3.08;;
16600;SDS011;34891;48.164;11.572;2022-07-06T10:21:19;3.50;;;3.03;;
16600;SDS011;34891;48.164;11.572;2022-07-06T10:26:23;6.45;;;3.53;;
16600;SDS011;34891;48.164;11.572;2022-07-06T10:31:26;6.22;;;3.50;;
16600;SDS011;34891;48.164;11.572;2022-07-06T10:36:29;6.57;;;3.40;;
16600;SDS011;34891;48.164;11.572;2022-07-06T10:41:34;4.82;;;3.17;;
16600;SDS011;34891;48.164;11.572;2022-07-06T10:46:38;5.18;;;3.10;;
16600;SDS011;34891;48.164;11.572;2022-07-06T10:51:41;3.47;;;2.88;;
16600;SDS011;34891;48.164;11.572;2022-07-06T10:56:45;3.22;;;2.92;;
16600;SDS011;34891;48.164;11.572;2022-07-06T11:07:13;4.97;;;2.80;;
16600;SDS011;34891;48.164;11.572;2022-07-06T11:12:18;3.05;;;2.63;;
16600;SDS011;34891;48.164;11.572;2022-07-06T11:17:21;2.30;;;2.10;;
16600;SDS011;34891;48.164;11.572;2022-07-06T11:22:26;6.05;;;2.80;;
16600;SDS011;34891;48.164;11.572;2022-07-06T11:27:32;4.55;;;2.78;;
16600;SDS011;34891;48.164;11.572;2022-07-06T11:32:36;3.85;;;2.80;;
16600;SDS011;34891;48.164;11.572;2022-07-06T11:37:39;2.58;;;2.38;;
16600;SDS011;34891;48.164;11.572;2022-07-06T11:42:53;5.40;;;2.70;;
16600;SDS011;34891;48.164;11.572;2022-07-06T11:48:09;3.50;;;2.40;;
16600;SDS011;34891;48.164;11.572;2022-07-06T11:53:14;3.10;;;2.50;;
16600;SDS011;34891;48.164;11.572;2022-07-06T11:58:18;3.28;;;2.40;;
16600;SDS011;34891;48.164;11.572;2022-07-06T12:03:23;3.03;;;2.00;;
16600;SDS011;34891;48.164;11.572;2022-07-06T12:08:27;6.30;;;2.72;;
16600;SDS011;34891;48.164;11.572;2022-07-06T12:13:31;5.72;;;2.40;;
16600;SDS011;34891;48.164;11.572;2022-07-06T12:18:39;4.65;;;2.10;;
16600;SDS011;34891;48.164;11.572;2022-07-06T12:23:42;2.78;;;2.00;;
16600;SDS011;34891;48.164;11.572;2022-07-06T12:28:53;4.30;;;2.50;;
16600;SDS011;34891;48.164;11.572;2022-07-06T12:34:01;7.28;;;2.88;;
16600;SDS011;34891;48.164;11.572;2022-07-06T12:39:09;3.97;;;2.50;;
16600;SDS011;34891;48.164;11.572;2022-07-06T12:44:15;5.95;;;2.35;;
16600;SDS011;34891;48.164;11.572;2022-07-06T12:49:19;4.13;;;2.60;;
16600;SDS011;34891;48.164;11.572;2022-07-06T12:54:25;4.15;;;2.58;;
16600;SDS011;34891;48.164;11.572;2022-07-06T12:59:29;3.72;;;2.33;;
16600;SDS011;34891;48.164;11.572;2022-07-06T13:04:33;2.20;;;2.00;;
16600;SDS011;34891;48.164;11.572;2022-07-06T13:09:39;4.95;;;2.17;;
16600;SDS011;34891;48.164;11.572;2022-07-06T13:14:43;3.83;;;2.20;;
16600;SDS011;34891;48.164;11.572;2022-07-06T13:19:46;2.30;;;1.90;;
16600;SDS011;34891;48.164;11.572;2022-07-06T13:24:50;3.63;;;2.28;;
16600;SDS011;34891;48.164;11.572;2022-07-06T13:29:54;6.93;;;2.28;;
16600;SDS011;34891;48.164;11.572;2022-07-06T13:34:57;3.00;;;2.00;;
16600;SDS011;34891;48.164;11.572;2022-07-06T13:39:59;3.92;;;2.10;;
16600;SDS011;34891;48.164;11.572;2022-07-06T13:45:04;2.90;;;1.90;;
16600;SDS011;34891;48.164;11.572;2022-07-06T13:50:08;3.97;;;1.98;;
16600;SDS011;34891;48.164;11.572;2022-07-06T13:55:12;4.30;;;2.10;;
16600;SDS011;34891;48.164;11.572;2022-07-06T14:00:17;7.32;;;2.22;;
16600;SDS011;34891;48.164;11.572;2022-07-06T14:05:20;5.72;;;1.92;;
16600;SDS011;34891;48.164;11.572;2022-07-06T14:10:24;4.10;;;1.88;;
16600;SDS011;34891;48.164;11.572;2022-07-06T14:15:28;4.97;;;2.17;;
16600;SDS011;34891;48.164;11.572;2022-07-06T14:20:30;4.03;;;2.30;;
16600;SDS011;34891;48.164;11.572;2022-07-06T14:25:34;6.13;;;1.77;;
16600;SDS011;34891;48.164;11.572;2022-07-06T14:30:38;3.88;;;2.58;;
16600;SDS011;34891;48.164;11.572;2022-07-06T14:35:42;4.88;;;2.08;;
16600;SDS011;34891;48.164;11.572;2022-07-06T14:40:45;3.65;;;2.10;;
16600;SDS011;34891;48.164;11.572;2022-07-06T14:45:50;3.42;;;2.70;;
16600;SDS011;34891;48.164;11.572;2022-07-06T14:50:55;3.05;;;2.28;;
16600;SDS011;34891;48.164;11.572;2022-07-06T14:55:59;6.53;;;2.15;;
16600;SDS011;34891;48.164;11.572;2022-07-06T15:01:03;4.03;;;2.13;;
16600;SDS011;34891;48.164;11.572;2022-07-06T15:06:07;3.63;;;2.03;;
16600;SDS011;34891;48.164;11.572;2022-07-06T15:11:30;5.03;;;2.08;;
16600;SDS011;34891;48.164;11.572;2022-07-06T15:16:34;3.75;;;1.92;;
16600;SDS011;34891;48.164;11.572;2022-07-06T15:21:36;3.42;;;2.00;;
16600;SDS011;34891;48.164;11.572;2022-07-06T15:26:39;3.85;;;2.45;;
16600;SDS011;34891;48.164;11.572;2022-07-06T15:31:44;5.53;;;2.58;;
16600;SDS011;34891;48.164;11.572;2022-07-06T15:36:48;3.58;;;2.25;;
16600;SDS011;34891;48.164;11.572;2022-07-06T15:41:51;3.42;;;1.95;;
16600;SDS011;34891;48.164;11.572;2022-07-06T15:46:55;2.85;;;2.30;;
16600;SDS011;34891;48.164;11.572;2022-07-06T15:51:59;4.75;;;1.90;;
16600;SDS011;34891;48.164;11.572;2022-07-06T15:57:01;4.88;;;2.33;;
16600;SDS011;34891;48.164;11.572;2022-07-06T16:02:06;5.15;;;2.40;;
16600;SDS011;34891;48.164;11.572;2022-07-06T16:07:08;2.63;;;2.05;;
16600;SDS011;34891;48.164;11.572;2022-07-06T16:12:31;4.03;;;1.90;;
16600;SDS011;34891;48.164;11.572;2022-07-06T16:17:37;3.10;;;2.35;;
16600;SDS011;34891;48.164;11.572;2022-07-06T16:22:40;9.30;;;2.20;;
16600;SDS011;34891;48.164;11.572;2022-07-06T16:27:43;4.32;;;2.10;;
16600;SDS011;34891;48.164;11.572;2022-07-06T16:32:48;3.17;;;2.00;;
16600;SDS011;34891;48.164;11.572;2022-07-06T16:37:51;5.43;;;2.90;;
16600;SDS011;34891;48.164;11.572;2022-07-06T16:42:55;2.92;;;1.85;;
16600;SDS011;34891;48.164;11.572;2022-07-06T16:47:59;3.13;;;2.13;;
16600;SDS011;34891;48.164;11.572;2022-07-06T16:53:02;6.05;;;2.45;;
16600;SDS011;34891;48.164;11.572;2022-07-06T16:58:06;5.28;;;2.45;;
16600;SDS011;34891;48.164;11.572;2022-07-06T17:03:11;4.00;;;2.30;;
16600;SDS011;34891;48.164;11.572;2022-07-06T17:08:14;10.50;;;5.22;;
16600;SDS011;34891;48.164;11.572;2022-07-06T17:13:17;2.70;;;2.40;;
16600;SDS011;34891;48.164;11.572;2022-07-06T17:18:22;7.30;;;4.65;;
16600;SDS011;34891;48.164;11.572;2022-07-06T17:23:26;5.22;;;2.30;;
16600;SDS011;34891;48.164;11.572;2022-07-06T17:28:31;5.07;;;2.70;;
16600;SDS011;34891;48.164;11.572;2022-07-06T17:33:35;3.95;;;2.60;;
16600;SDS011;34891;48.164;11.572;2022-07-06T17:38:38;7.78;;;4.30;;
16600;SDS011;34891;48.164;11.572;2022-07-06T17:43:41;5.75;;;2.40;;
16600;SDS011;34891;48.164;11.572;2022-07-06T17:48:51;6.05;;;2.58;;
16600;SDS011;34891;48.164;11.572;2022-07-06T17:53:56;3.85;;;2.63;;
16600;SDS011;34891;48.164;11.572;2022-07-06T18:04:03;7.67;;;4.07;;
16600;SDS011;34891;48.164;11.572;2022-07-06T18:09:05;12.65;;;5.28;;
16600;SDS011;34891;48.164;11.572;2022-07-06T18:14:48;11.98;;;6.45;;
16600;SDS011;34891;48.164;11.572;2022-07-06T18:19:45;5.90;;;2.90;;
16600;SDS011;34891;48.164;11.572;2022-07-06T18:24:48;4.00;;;2.47;;
16600;SDS011;34891;48.164;11.572;2022-07-06T18:29:52;6.13;;;2.90;;
16600;SDS011;34891;48.164;11.572;2022-07-06T18:34:57;4.68;;;2.90;;
16600;SDS011;34891;48.164;11.572;2022-07-06T18:40:02;4.03;;;2.83;;
16600;SDS011;34891;48.164;11.572;2022-07-06T18:45:06;7.20;;;2.90;;
16600;SDS011;34891;48.164;11.572;2022-07-06T18:50:11;5.80;;;2.80;;
16600;SDS011;34891;48.164;11.572;2022-07-06T18:55:14;15.23;;;3.92;;
16600;SDS011;34891;48.164;11.572;2022-07-06T19:00:17;6.28;;;3.90;;
16600;SDS011;34891;48.164;11.572;2022-07-06T19:05:21;5.95;;;3.15;;
16600;SDS011;34891;48.164;11.572;2022-07-06T19:10:24;9.50;;;4.75;;
16600;SDS011;34891;48.164;11.572;2022-07-06T19:15:26;4.93;;;2.75;;
16600;SDS011;34891;48.164;11.572;2022-07-06T19:20:30;5.50;;;3.38;;
16600;SDS011;34891;48.164;11.572;2022-07-06T19:25:33;4.22;;;2.70;;
16600;SDS011;34891;48.164;11.572;2022-07-06T19:30:36;6.25;;;2.65;;
16600;SDS011;34891;48.164;11.572;2022-07-06T19:35:40;6.53;;;3.03;;
16600;SDS011;34891;48.164;11.572;2022-07-06T19:40:43;9.95;;;4.75;;
16600;SDS011;34891;48.164;11.572;2022-07-06T19:45:45;12.70;;;3.50;;
16600;SDS011;34891;48.164;11.572;2022-07-06T19:50:50;5.75;;;3.33;;
16600;SDS011;34891;48.164;11.572;2022-07-06T19:55:54;5.22;;;3.17;;
16600;SDS011;34891;48.164;11.572;2022-07-06T20:00:59;4.47;;;2.90;;
16600;SDS011;34891;48.164;11.572;2022-07-06T20:06:03;5.15;;;3.50;;
16600;SDS011;34891;48.164;11.572;2022-07-06T20:11:06;8.13;;;3.10;;
16600;SDS011;34891;48.164;11.572;2022-07-06T20:16:10;4.15;;;3.05;;
16600;SDS011;34891;48.164;11.572;2022-07-06T20:21:14;7.78;;;2.95;;
16600;SDS011;34891;48.164;11.572;2022-07-06T20:26:17;5.18;;;3.75;;
16600;SDS011;34891;48.164;11.572;2022-07-06T20:31:19;3.93;;;2.80;;
16600;SDS011;34891;48.164;11.572;2022-07-06T20:36:24;9.43;;;4.65;;
16600;SDS011;34891;48.164;11.572;2022-07-06T20:41:26;4.70;;;3.20;;
16600;SDS011;34891;48.164;11.572;2022-07-06T20:46:29;6.35;;;2.95;;
16600;SDS011;34891;48.164;11.572;2022-07-06T20:51:33;5.40;;;3.58;;
16600;SDS011;34891;48.164;11.572;2022-07-06T20:56:36;3.70;;;2.92;;
16600;SDS011;34891;48.164;11.572;2022-07-06T21:01:39;4.77;;;3.10;;
16600;SDS011;34891;48.164;11.572;2022-07-06T21:06:43;7.05;;;3.35;;
16600;SDS011;34891;48.164;11.572;2022-07-06T21:11:45;6.60;;;3.75;;
16600;SDS011;34891;48.164;11.572;2022-07-06T21:16:49;4.28;;;3.10;;
16600;SDS011;34891;48.164;11.572;2022-07-06T21:21:53;7.50;;;3.75;;
16600;SDS011;34891;48.164;11.572;2022-07-06T21:26:56;5.65;;;3.30;;
16600;SDS011;34891;48.164;11.572;2022-07-06T21:31:59;7.03;;;4.15;;
16600;SDS011;34891;48.164;11.572;2022-07-06T21:37:04;5.43;;;3.22;;
16600;SDS011;34891;48.164;11.572;2022-07-06T21:42:07;5.03;;;3.25;;
16600;SDS011;34891;48.164;11.572;2022-07-06T21:47:10;4.82;;;2.70;;
16600;SDS011;34891;48.164;11.572;2022-07-06T21:52:15;7.38;;;2.97;;
16600;SDS011;34891;48.164;11.572;2022-07-06T21:57:17;3.95;;;2.50;;
16600;SDS011;34891;48.164;11.572;2022-07-06T22:02:20;5.17;;;2.50;;
16600;SDS011;34891;48.164;11.572;2022-07-06T22:07:24;4.70;;;2.17;;
16600;SDS011;34891;48.164;11.572;2022-07-06T22:12:27;4.95;;;2.25;;
16600;SDS011;34891;48.164;11.572;2022-07-06T22:17:31;2.28;;;1.90;;
16600;SDS011;34891;48.164;11.572;2022-07-06T22:22:36;4.78;;;2.28;;
16600;SDS011;34891;48.164;11.572;2022-07-06T22:27:39;4.10;;;2.00;;
16600;SDS011;34891;48.164;11.572;2022-07-06T22:32:42;4.20;;;2.30;;
16600;SDS011;34891;48.164;11.572;2022-07-06T22:37:46;2.30;;;1.80;;
16600;SDS011;34891;48.164;11.572;2022-07-06T22:42:49;6.22;;;2.97;;
16600;SDS011;34891;48.164;11.572;2022-07-06T22:47:52;5.90;;;2.50;;
16600;SDS011;34891;48.164;11.572;2022-07-06T22:52:57;3.60;;;2.30;;
16600;SDS011;34891;48.164;11.572;2022-07-06T22:58:00;5.05;;;2.40;;
16600;SDS011;34891;48.164;11.572;2022-07-06T23:03:03;5.32;;;2.40;;
16600;SDS011;34891;48.164;11.572;2022-07-06T23:08:07;3.70;;;2.50;;
16600;SDS011;34891;48.164;11.572;2022-07-06T23:13:11;3.83;;;2.25;;
16600;SDS011;34891;48.164;11.572;2022-07-06T23:18:14;5.05;;;2.70;;
16600;SDS011;34891;48.164;11.572;2022-07-06T23:23:19;7.65;;;2.35;;
16600;SDS011;34891;48.164;11.572;2022-07-06T23:28:21;5.03;;;2.28;;
16600;SDS011;34891;48.164;11.572;2022-07-06T23:38:29;2.60;;;1.90;;
16600;SDS011;34891;48.164;11.572;2022-07-06T23:43:32;4.40;;;2.22;;
16600;SDS011;34891;48.164;11.572;2022-07-06T23:53:39;4.97;;;2.42;;
16600;SDS011;34891;48.164;11.572;2022-07-06T23:58:42;5.20;;;2.22;;
